Time;durP1;ratioP1;P1;durP2;ratioP2;P2;SDS_P1;SDS_P2;PMS_P1;PMS_P2;Temp;Humidity;BMP_temperature;BMP_pressure;BME280_temperature;BME280_humidity;BME280_pressure;Samples;Min_cycle;Max_cycle;Signal;HPM_P1;HPM_P2
2022/08/13 00:01:56;;;;;;;14.20;11.20;;;;;;;19.64;83.26;100395.25;106042;1276;111641;-79
2022/08/13 00:04:30;;;;;;;13.20;11.30;;;;;;;19.66;83.25;100397.22;106286;1275;139036;-78
2022/08/13 00:07:08;;;;;;;13.40;12.00;;;;;;;19.67;83.36;100399.76;107515;1275;108482;-79
2022/08/13 00:09:43;;;;;;;15.30;11.90;;;;;;;19.68;83.09;100398.61;106535;1276;139267;-78
2022/08/13 00:15:11;;;;;;;13.60;12.00;;;;;;;19.70;83.24;100406.59;107518;1275;112538;-78
2022/08/13 00:17:43;;;;;;;;;;;;;;;19.71;83.22;100405.66;107396;1275;138989;-79
2022/08/13 00:20:40;;;;;;;14.10;11.00;;;;;;;19.69;82.97;100403.12;106412;1276;108961;-79
2022/08/13 00:23:25;;;;;;;15.20;11.70;;;;;;;19.68;83.18;100398.30;105857;1276;139056;-79
2022/08/13 00:26:17;;;;;;;12.90;11.10;;;;;;;19.67;83.04;100393.42;106026;1276;97954;-78
2022/08/13 00:29:05;;;;;;;15.80;12.20;;;;;;;19.67;83.05;100395.20;107445;1275;140299;-79
2022/08/13 00:31:40;;;;;;;;;;;;;;;19.66;83.11;100390.46;106670;1275;109361;-78
2022/08/13 00:34:13;;;;;;;13.30;11.60;;;;;;;19.65;83.31;100385.45;105856;1276;125379;-79
2022/08/13 00:36:47;;;;;;;13.20;11.80;;;;;;;19.64;83.31;100379.84;107336;1277;96226;-80
2022/08/13 00:39:19;;;;;;;13.20;11.70;;;;;;;19.65;83.24;100377.71;107514;1274;96053;-79
2022/08/13 00:41:52;;;;;;;14.90;13.10;;;;;;;19.66;83.42;100372.54;107404;1276;139049;-80
2022/08/13 00:44:32;;;;;;;14.50;12.20;;;;;;;19.64;83.32;100367.38;106967;1274;108852;-79
2022/08/13 00:49:55;;;;;;;13.40;11.70;;;;;;;19.62;83.16;100362.52;107479;1275;98896;-79
2022/08/13 00:52:40;;;;;;;13.20;11.80;;;;;;;19.63;83.22;100364.61;107422;1275;139009;-79
2022/08/13 00:55:17;;;;;;;13.30;11.10;;;;;;;19.62;83.03;100362.89;107521;1273;112552;-79
2022/08/13 00:57:54;;;;;;;12.20;11.00;;;;;;;19.63;83.25;100361.42;107462;1275;139377;-79
2022/08/13 01:00:28;;;;;;;15.70;11.90;;;;;;;19.63;83.01;100358.59;107511;1275;110023;-79
2022/08/13 01:03:00;;;;;;;14.60;11.70;;;;;;;19.64;82.91;100359.27;106619;1275;97875;-79
2022/08/13 01:05:49;;;;;;;12.10;10.80;;;;;;;19.63;83.21;100355.60;107325;1275;138544;-79
2022/08/13 01:08:25;;;;;;;12.70;11.30;;;;;;;19.62;83.04;100352.66;106910;1276;112818;-80
2022/08/13 01:11:04;;;;;;;12.30;10.80;;;;;;;19.61;83.07;100355.38;106001;1276;139119;-80
2022/08/13 01:13:43;;;;;;;13.90;11.20;;;;;;;19.61;83.21;100356.98;106020;1276;107939;-78
2022/08/13 01:16:16;;;;;;;15.90;10.90;;;;;;;19.62;83.11;100357.28;107407;1275;139444;-79
2022/08/13 01:18:54;;;;;;;12.30;10.00;;;;;;;19.63;83.00;100355.27;107520;1275;96539;-79
2022/08/13 01:21:31;;;;;;;13.10;10.60;;;;;;;19.63;83.01;100353.63;106253;1275;110375;-78
2022/08/13 01:24:13;;;;;;;13.40;10.30;;;;;;;19.63;82.86;100352.07;106084;1276;109206;-78
2022/08/13 01:26:46;;;;;;;10.90;9.80;;;;;;;19.64;82.82;100349.55;105987;1276;108815;-79
2022/08/13 01:29:18;;;;;;;10.90;9.80;;;;;;;19.63;82.77;100348.21;105918;1276;138835;-78
2022/08/13 01:31:53;;;;;;;11.00;9.80;;;;;;;19.62;82.88;100349.46;106040;1275;97850;-80
2022/08/13 01:34:30;;;;;;;11.30;10.20;;;;;;;19.62;83.04;100347.38;105892;1275;139990;-78
2022/08/13 01:37:02;;;;;;;14.40;10.50;;;;;;;19.59;82.96;100343.16;107374;1276;109524;-79
2022/08/13 01:39:36;;;;;;;10.90;9.90;;;;;;;19.57;83.00;100342.25;106035;1276;139196;-76
2022/08/13 01:42:19;;;;;;;10.80;9.70;;;;;;;19.55;83.02;100339.88;107386;1276;96310;-79
2022/08/13 01:44:51;;;;;;;11.00;9.80;;;;;;;19.54;82.91;100339.09;106108;1276;97977;-79
2022/08/13 01:50:30;;;;;;;11.70;9.60;;;;;;;19.54;83.10;100341.71;106071;1275;108934;-79
2022/08/13 01:53:07;;;;;;;10.80;9.80;;;;;;;19.53;82.97;100341.40;105905;1275;138789;-79
2022/08/13 01:55:41;;;;;;;12.70;11.00;;;;;;;19.51;83.16;100343.10;107333;1276;96353;-79
2022/08/13 01:58:34;;;;;;;11.80;10.30;;;;;;;19.51;83.19;100336.45;106791;1275;140705;-79
2022/08/13 02:01:27;;;;;;;11.40;10.20;;;;;;;19.48;82.94;100334.02;105994;1275;112369;-79
2022/08/13 02:04:14;;;;;;;11.00;9.90;;;;;;;19.45;83.00;100332.09;107413;1275;139530;-80
2022/08/13 02:06:54;;;;;;;10.80;9.70;;;;;;;19.44;82.85;100329.86;107536;1275;108063;-80
2022/08/13 02:09:26;;;;;;;12.40;10.20;;;;;;;19.44;83.17;100330.79;107492;1275;96024;-79
2022/08/13 02:12:18;;;;;;;11.70;10.50;;;;;;;19.42;83.20;100329.63;107499;1275;96047;-80
2022/08/13 02:15:07;;;;;;;11.00;9.90;;;;;;;19.43;83.04;100328.36;107520;1275;112492;-79
2022/08/13 02:17:41;;;;;;;11.20;10.10;;;;;;;19.44;83.14;100330.96;107420;1275;139592;-80
2022/08/13 02:20:35;;;;;;;11.50;10.30;;;;;;;19.46;83.37;100334.17;106725;1275;108939;-78
2022/08/13 02:23:08;;;;;;;14.40;9.70;;;;;;;19.47;83.21;100335.84;105904;1275;139136;-78
2022/08/13 02:25:43;;;;;;;10.90;9.90;;;;;;;19.48;83.29;100330.85;107522;1275;96304;-78
2022/08/13 02:28:18;;;;;;;10.70;9.60;;;;;;;19.49;83.20;100331.10;106443;1276;139286;-78
2022/08/13 02:30:58;;;;;;;13.80;9.00;;;;;;;19.50;83.33;100333.54;107519;1275;109238;-79
2022/08/13 02:33:30;;;;;;;10.20;9.20;;;;;;;19.52;83.26;100332.52;106858;1274;107299;-78
2022/08/13 02:36:15;;;;;;;11.00;9.70;;;;;;;19.54;83.19;100333.27;106063;1276;98262;-79
2022/08/13 02:38:57;;;;;;;11.20;10.00;;;;;;;19.56;83.06;100338.94;107411;1276;96294;-79
2022/08/13 02:41:41;;;;;;;11.20;10.10;;;;;;;19.57;83.14;100339.23;106290;1275;138742;-79
2022/08/13 02:44:25;;;;;;;12.30;9.80;;;;;;;19.55;82.91;100334.20;107555;1275;108983;-80
2022/08/13 02:47:06;;;;;;;13.10;9.30;;;;;;;19.54;82.84;100331.32;107460;1275;139854;-80
2022/08/13 02:49:40;;;;;;;11.90;9.30;;;;;;;19.52;82.79;100326.13;107563;1274;95838;-80
2022/08/13 02:52:19;;;;;;;9.60;8.60;;;;;;;19.50;82.94;100320.84;106212;1276;140317;-81
2022/08/13 02:54:52;;;;;;;11.30;9.90;;;;;;;19.47;82.65;100318.72;106107;1275;112105;-79
2022/08/13 02:57:27;;;;;;;11.30;9.90;;;;;;;19.45;82.73;100319.23;106906;1275;108999;-79
2022/08/13 03:00:06;;;;;;;10.00;9.00;;;;;;;19.42;82.80;100317.31;106074;1276;108925;-81
2022/08/13 03:02:44;;;;;;;10.70;9.70;;;;;;;19.40;82.70;100313.58;106901;1276;97956;-79
2022/08/13 03:05:20;;;;;;;13.50;9.70;;;;;;;19.38;82.70;100308.42;106293;1276;139339;-79
2022/08/13 03:08:00;;;;;;;10.40;9.40;;;;;;;19.35;82.74;100310.53;106139;1275;111402;-78
2022/08/13 03:10:38;;;;;;;12.00;9.60;;;;;;;19.31;82.56;100314.46;105943;1276;139801;-79
2022/08/13 03:13:18;;;;;;;10.10;9.00;;;;;;;19.28;82.51;100303.97;106071;1275;108066;-79
2022/08/13 03:15:58;;;;;;;10.60;9.40;;;;;;;19.24;82.75;100306.67;106089;1274;139215;-79
2022/08/13 03:18:33;;;;;;;10.60;9.60;;;;;;;19.21;82.78;100306.20;106037;1276;97938;-79
2022/08/13 03:21:27;;;;;;;11.70;9.50;;;;;;;19.18;82.84;100302.33;106086;1274;112750;-80
2022/08/13 03:24:17;;;;;;;12.10;9.60;;;;;;;19.16;82.88;100298.27;107378;1276;109062;-80
2022/08/13 03:27:04;;;;;;;11.40;9.90;;;;;;;19.14;82.96;100297.70;106798;1275;108426;-79
2022/08/13 03:29:39;;;;;;;10.90;9.50;;;;;;;19.12;82.86;100298.88;105940;1276;139489;-80
2022/08/13 03:32:35;;;;;;;10.40;9.10;;;;;;;19.10;83.01;100294.08;106101;1276;97835;-79
2022/08/13 03:35:12;;;;;;;11.00;8.80;;;;;;;19.08;83.05;100295.27;106075;1274;138680;-79
2022/08/13 03:37:48;;;;;;;11.10;9.60;;;;;;;19.06;82.92;100293.13;107593;1274;107986;-80
2022/08/13 03:40:25;;;;;;;10.60;9.50;;;;;;;19.04;82.98;100293.61;107454;1276;139824;-80
2022/08/13 03:43:14;;;;;;;10.40;9.40;;;;;;;19.05;82.99;100294.63;107567;1274;96468;-79
2022/08/13 03:45:47;;;;;;;11.80;9.70;;;;;;;19.04;82.92;100292.94;107470;1274;140006;-80
2022/08/13 03:48:19;;;;;;;12.30;9.60;;;;;;;19.01;82.92;100292.85;107580;1274;112719;-79
2022/08/13 03:50:51;;;;;;;12.70;9.10;;;;;;;19.02;82.83;100294.45;106759;1276;109284;-79
2022/08/13 03:53:27;;;;;;;10.70;9.20;;;;;;;19.02;82.74;100299.71;105942;1275;138832;-78
2022/08/13 03:56:15;;;;;;;10.60;8.90;;;;;;;19.04;82.87;100290.48;106982;1275;97821;-79
2022/08/13 03:58:47;;;;;;;10.60;8.80;;;;;;;19.04;82.73;100290.08;106608;1276;138633;-79
2022/08/13 04:01:20;;;;;;;12.70;8.60;;;;;;;19.06;82.79;100287.33;106062;1276;112578;-79
2022/08/13 04:03:56;;;;;;;11.00;9.20;;;;;;;19.10;82.74;100292.17;106248;1275;139013;-79
2022/08/13 04:06:29;;;;;;;10.70;8.80;;;;;;;19.15;82.76;100296.77;107565;1275;109097;-79
2022/08/13 04:09:02;;;;;;;11.60;8.80;;;;;;;19.17;82.56;100295.88;106300;1274;97818;-79
2022/08/13 04:11:36;;;;;;;9.90;8.40;;;;;;;19.19;82.29;100301.21;106011;1275;138632;-79
2022/08/13 04:14:08;;;;;;;10.40;8.40;;;;;;;19.20;82.14;100297.46;106020;1276;111419;-79
2022/08/13 04:17:01;;;;;;;11.60;8.50;;;;;;;19.21;81.84;100303.40;105938;1276;140698;-81
2022/08/13 04:19:34;;;;;;;13.20;9.30;;;;;;;19.23;81.99;100311.02;106066;1275;108774;-80
2022/08/13 04:22:07;;;;;;;9.30;8.20;;;;;;;19.24;81.90;100313.94;106552;1276;138909;-80
2022/08/13 04:24:42;;;;;;;12.00;9.60;;;;;;;19.24;81.74;100314.98;107589;1274;95839;-80
2022/08/13 04:27:15;;;;;;;9.80;8.80;;;;;;;19.25;81.75;100311.38;107634;1274;112357;-81
2022/08/13 04:29:51;;;;;;;12.20;8.90;;;;;;;19.26;81.64;100311.30;107485;1274;138817;-80
2022/08/13 04:32:23;;;;;;;11.20;8.40;;;;;;;19.29;81.67;100317.10;107481;1275;108923;-80
2022/08/13 04:34:57;;;;;;;12.80;8.00;;;;;;;19.31;81.84;100319.42;107458;1274;138805;-80
2022/08/13 04:37:31;;;;;;;12.20;8.50;;;;;;;19.36;81.45;100322.10;107599;1274;96212;-81
2022/08/13 04:40:16;;;;;;;9.70;8.20;;;;;;;19.40;81.23;100322.02;106545;1274;139874;-80
2022/08/13 04:43:01;;;;;;;10.40;8.10;;;;;;;19.44;81.24;100319.83;107575;1274;109032;-81
2022/08/13 04:45:37;;;;;;;11.00;7.70;;;;;;;19.45;80.88;100319.55;106810;1274;139170;-79
2022/08/13 04:48:13;;;;;;;14.80;7.80;;;;;;;19.47;80.79;100318.02;106062;1276;97851;-80
2022/08/13 04:50:49;;;;;;;9.20;8.20;;;;;;;19.49;80.74;100320.56;107588;1275;96108;-80
2022/08/13 04:53:27;;;;;;;10.90;7.80;;;;;;;19.52;80.96;100320.66;106582;1276;138436;-79
2022/08/13 04:56:03;;;;;;;9.00;7.80;;;;;;;19.58;80.61;100315.55;106514;1276;109039;-79
2022/08/13 04:58:49;;;;;;;11.70;7.60;;;;;;;19.62;80.47;100314.05;105989;1274;138737;-80
2022/08/13 05:01:23;;;;;;;11.70;7.10;;;;;;;19.67;80.18;100310.68;106040;1276;97832;-79
2022/08/13 05:04:17;;;;;;;9.30;6.80;;;;;;;19.75;79.87;100307.83;105973;1275;138839;-79
2022/08/13 05:06:55;;;;;;;11.10;6.80;;;;;;;19.84;79.64;100312.86;107266;1276;112497;-80
2022/08/13 05:09:27;;;;;;;7.20;6.20;;;;;;;19.92;79.06;100307.35;106037;1274;108886;-79
2022/08/13 05:12:02;;;;;;;11.00;6.50;;;;;;;20.00;78.73;100303.30;106043;1274;108803;-81
2022/08/13 05:14:37;;;;;;;11.60;6.10;;;;;;;20.09;78.84;100303.48;106138;1274;97825;-81
2022/08/13 05:17:13;;;;;;;9.20;6.20;;;;;;;20.19;78.42;100307.52;105994;1274;138585;-79
2022/08/13 05:19:47;;;;;;;8.50;6.00;;;;;;;20.31;78.21;100306.17;106139;1275;112452;-78
2022/08/13 05:22:23;;;;;;;9.20;6.20;;;;;;;20.47;77.93;100309.84;106777;1274;138603;-79
2022/08/13 05:25:01;;;;;;;9.40;6.00;;;;;;;20.65;77.67;100307.98;106059;1276;108844;-79
2022/08/13 05:27:53;;;;;;;7.40;5.90;;;;;;;20.85;77.34;100305.44;106028;1276;140077;-79
2022/08/13 05:30:26;;;;;;;8.70;5.10;;;;;;;20.98;76.68;100308.02;106117;1275;98509;-79
2022/08/13 05:33:12;;;;;;;8.90;5.80;;;;;;;21.06;76.16;100306.66;106036;1276;112497;-79
2022/08/13 05:35:48;;;;;;;8.70;5.80;;;;;;;21.17;75.98;100309.61;107298;1276;140301;-79
2022/08/13 05:38:41;;;;;;;6.70;5.50;;;;;;;21.23;75.53;100310.92;107592;1275;109488;-80
2022/08/13 05:41:13;;;;;;;9.40;5.70;;;;;;;21.29;75.50;100307.83;107493;1274;138638;-79
2022/08/13 05:43:50;;;;;;;11.40;5.90;;;;;;;21.40;75.25;100306.97;106831;1273;97888;-79
2022/08/13 05:46:24;;;;;;;10.50;5.80;;;;;;;21.56;75.06;100303.10;105984;1274;138646;-78
2022/08/13 05:48:59;;;;;;;8.70;5.80;;;;;;;21.78;75.00;100298.02;107563;1274;108938;-79
2022/08/13 05:51:32;;;;;;;7.80;5.70;;;;;;;22.28;74.61;100292.29;106129;1276;109340;-79
2022/08/13 05:54:24;;;;;;;7.10;5.40;;;;;;;23.34;73.54;100284.97;105926;1276;97940;-79
2022/08/13 05:57:17;;;;;;;6.20;4.80;;;;;;;24.01;71.49;100283.09;106110;1275;97727;-79
2022/08/13 06:05:38;;;;;;;6.50;4.80;;;;;;;23.95;69.06;100289.38;105963;1276;138676;-79
2022/08/13 06:08:18;;;;;;;7.60;5.10;;;;;;;23.86;68.37;100292.27;107604;1274;96288;-79
2022/08/13 06:11:15;;;;;;;7.30;4.70;;;;;;;23.65;67.84;100285.19;107490;1275;138349;-79
2022/08/13 06:13:50;;;;;;;7.70;5.30;;;;;;;23.51;68.06;100290.45;107576;1274;112558;-79
2022/08/13 06:16:38;;;;;;;14.40;8.10;;;;;;;23.35;67.77;100291.95;106512;1277;138694;-79
2022/08/13 06:19:29;;;;;;;8.80;5.00;;;;;;;23.20;68.17;100293.66;105978;1276;110728;-80
2022/08/13 06:22:06;;;;;;;7.40;5.20;;;;;;;23.07;68.36;100290.83;105818;1276;138756;-79
2022/08/13 06:24:47;;;;;;;8.50;5.50;;;;;;;22.95;68.45;100301.42;106021;1275;97853;-79
2022/08/13 06:27:26;;;;;;;12.40;6.10;;;;;;;22.82;68.41;100333.33;105957;1276;112548;-79
2022/08/13 06:30:18;;;;;;;7.90;5.50;;;;;;;22.61;67.95;100362.10;106042;1275;107690;-78
2022/08/13 06:33:02;;;;;;;15.90;6.10;;;;;;;22.38;68.05;100377.95;105990;1276;108832;-79
2022/08/13 06:35:58;;;;;;;12.60;6.50;;;;;;;22.05;68.15;100406.04;105833;1276;138814;-79
2022/08/13 06:38:42;;;;;;;9.30;6.20;;;;;;;21.69;69.02;100431.98;106039;1276;97830;-76
2022/08/13 06:41:23;;;;;;;11.50;6.40;;;;;;;21.37;69.67;100428.16;105888;1275;138364;-77
2022/08/13 06:44:04;;;;;;;10.80;5.70;;;;;;;21.00;70.34;100428.80;107573;1275;108998;-78
2022/08/13 06:46:36;;;;;;;9.90;6.10;;;;;;;20.59;71.61;100429.45;107460;1274;139116;-77
2022/08/13 06:49:11;;;;;;;9.80;6.30;;;;;;;20.19;72.99;100435.35;107425;1274;97824;-77
2022/08/13 06:51:49;;;;;;;12.50;7.40;;;;;;;19.72;75.77;100422.34;106318;1274;139817;-74
2022/08/13 06:54:28;;;;;;;12.60;8.30;;;;;;;19.17;78.95;100424.76;105859;1277;112368;-75
2022/08/13 06:57:08;;;;;;;14.30;8.40;;;;;;;18.74;81.29;100436.27;105946;1276;108749;-75
2022/08/13 06:59:57;;;;;;;10.60;9.40;;;;;;;18.39;84.87;100428.63;105841;1276;138560;-74
2022/08/13 07:02:49;;;;;;;15.50;10.50;;;;;;;18.15;86.38;100437.98;105942;1275;97857;-77
2022/08/13 07:05:33;;;;;;;14.60;10.10;;;;;;;18.02;89.21;100422.27;105868;1276;140282;-75
2022/08/13 07:08:08;;;;;;;14.50;11.50;;;;;;;17.91;91.20;100415.33;107579;1275;112186;-74
2022/08/13 07:10:50;;;;;;;13.60;12.10;;;;;;;17.87;91.03;100416.49;107478;1274;138886;-74
2022/08/13 07:13:22;;;;;;;14.40;12.10;;;;;;;17.84;91.70;100414.39;107565;1274;107823;-76
2022/08/13 07:16:17;;;;;;;16.40;13.60;;;;;;;17.81;93.02;100416.84;107459;1276;139072;-75
2022/08/13 07:18:59;;;;;;;15.50;13.70;;;;;;;17.80;92.34;100423.59;106549;1274;95613;-76
2022/08/13 07:21:32;;;;;;;17.30;14.70;;;;;;;17.79;93.17;100437.00;106086;1276;112819;-75
2022/08/13 07:24:14;;;;;;;16.80;14.50;;;;;;;17.78;92.46;100449.52;107576;1274;106954;-75
2022/08/13 07:27:08;;;;;;;19.30;15.70;;;;;;;17.80;92.33;100433.59;107546;1276;108801;-75
2022/08/13 07:29:42;;;;;;;16.50;14.70;;;;;;;17.83;92.31;100422.17;107472;1275;138915;-75
2022/08/13 07:32:23;;;;;;;19.00;15.30;;;;;;;17.87;92.00;100408.04;106445;1275;97761;-75
2022/08/13 07:35:00;;;;;;;19.00;16.50;;;;;;;17.92;91.99;100396.61;106029;1274;138772;-75
2022/08/13 07:37:35;;;;;;;21.10;16.20;;;;;;;17.97;92.11;100388.06;107549;1275;109343;-77
2022/08/13 07:40:09;;;;;;;23.90;18.40;;;;;;;18.04;92.23;100369.17;106683;1276;139125;-76
2022/08/13 07:42:43;;;;;;;23.50;17.40;;;;;;;18.13;92.26;100352.45;105970;1276;97847;-76
2022/08/13 07:45:24;;;;;;;22.90;16.90;;;;;;;18.24;92.61;100339.77;106116;1276;97858;-77
2022/08/13 07:48:17;;;;;;;28.20;20.70;;;;;;;18.42;93.18;100329.31;106061;1274;111819;-79
2022/08/13 07:51:15;;;;;;;29.10;20.30;;;;;;;18.63;93.76;100326.39;106122;1276;108816;-79
2022/08/13 07:53:49;;;;;;;24.40;20.90;;;;;;;18.84;94.26;100334.59;106180;1275;139014;-76
2022/08/13 07:56:29;;;;;;;21.90;17.00;;;;;;;19.01;93.91;100328.51;107562;1274;96462;-75
2022/08/13 07:59:07;;;;;;;16.30;14.40;;;;;;;19.18;93.41;100317.50;106385;1275;138888;-75
2022/08/13 08:01:48;;;;;;;15.30;13.40;;;;;;;19.25;92.58;100312.64;107586;1276;112483;-75
2022/08/13 08:04:41;;;;;;;13.20;11.80;;;;;;;19.34;92.47;100312.90;107477;1275;139218;-74
2022/08/13 08:07:21;;;;;;;12.40;11.20;;;;;;;19.42;92.40;100313.26;106337;1276;109020;-74
2022/08/13 08:09:55;;;;;;;12.20;11.00;;;;;;;19.49;92.08;100310.83;107467;1275;139507;-74
2022/08/13 08:12:35;;;;;;;15.50;11.30;;;;;;;19.52;91.60;100298.11;107536;1274;96101;-75
2022/08/13 08:15:26;;;;;;;12.40;11.00;;;;;;;19.58;91.63;100288.40;107571;1276;112541;-75
2022/08/13 08:18:18;;;;;;;12.20;11.00;;;;;;;19.66;91.85;100284.50;107543;1275;108583;-75
2022/08/13 08:21:12;;;;;;;13.00;11.50;;;;;;;19.75;91.95;100276.95;107535;1276;108212;-75
2022/08/13 08:24:05;;;;;;;11.80;10.40;;;;;;;19.85;91.75;100276.77;107562;1274;96054;-74
2022/08/13 08:26:59;;;;;;;14.10;11.20;;;;;;;19.93;91.81;100279.23;107540;1274;95792;-75
2022/08/13 08:29:32;;;;;;;15.60;11.30;;;;;;;20.05;92.09;100281.41;106942;1274;138667;-75
2022/08/13 08:32:25;;;;;;;14.30;12.90;;;;;;;20.19;92.24;100281.60;106104;1276;109137;-75
2022/08/13 08:35:10;;;;;;;12.80;11.60;;;;;;;20.35;92.19;100277.48;105981;1276;138969;-75
2022/08/13 08:43:32;;;;;;;14.60;13.10;;;;;;;21.44;94.53;100256.30;106127;1275;112362;-75
2022/08/13 08:46:20;;;;;;;13.20;11.90;;;;;;;22.00;93.56;100240.86;105983;1274;140211;-74
2022/08/13 08:48:55;;;;;;;14.40;12.20;;;;;;;22.62;93.83;100240.11;106099;1275;108950;-76
2022/08/13 08:51:33;;;;;;;11.90;10.70;;;;;;;23.21;92.82;100235.89;106072;1276;97837;-78
2022/08/13 08:54:07;;;;;;;10.60;9.60;;;;;;;23.74;92.98;100228.80;107559;1274;96061;-78
2022/08/13 08:57:00;;;;;;;10.60;9.50;;;;;;;24.11;89.45;100214.94;106674;1276;112430;-79
2022/08/13 08:59:35;;;;;;;10.50;9.40;;;;;;;24.40;87.79;100211.42;105855;1276;139850;-76
2022/08/13 09:02:24;;;;;;;8.70;7.90;;;;;;;24.82;85.82;100198.20;107463;1276;108805;-77
2022/08/13 09:04:59;;;;;;;8.90;8.10;;;;;;;25.21;84.40;100200.29;106636;1274;138989;-77
2022/08/13 09:07:49;;;;;;;9.70;8.00;;;;;;;25.55;83.25;100192.17;107552;1276;95865;-77
2022/08/13 09:10:23;;;;;;;9.60;8.30;;;;;;;25.80;81.21;100184.26;106383;1274;138337;-77
2022/08/13 09:13:04;;;;;;;9.20;8.30;;;;;;;26.37;81.49;100176.02;106203;1276;108871;-77
2022/08/13 09:15:39;;;;;;;10.00;8.90;;;;;;;27.15;82.94;100175.64;105892;1274;138698;-78
2022/08/13 09:18:21;;;;;;;8.50;7.60;;;;;;;27.68;78.04;100177.98;105984;1274;98249;-79
2022/08/13 09:21:02;;;;;;;9.40;7.60;;;;;;;27.77;75.26;100186.91;106065;1274;97813;-79
2022/08/13 09:23:55;;;;;;;8.10;7.30;;;;;;;28.10;74.38;100177.66;106007;1275;138332;-79
2022/08/13 09:26:51;;;;;;;7.80;7.10;;;;;;;28.35;72.66;100182.63;106096;1274;109450;-79
2022/08/13 09:29:32;;;;;;;7.60;6.80;;;;;;;28.45;71.32;100192.31;105967;1277;139326;-79
2022/08/13 09:32:08;;;;;;;8.40;7.60;;;;;;;28.35;70.53;100193.20;106077;1277;98585;-78
2022/08/13 09:35:01;;;;;;;9.50;7.40;;;;;;;28.46;70.60;100196.66;106041;1276;138473;-77
2022/08/13 09:37:34;;;;;;;7.40;6.70;;;;;;;28.66;69.98;100201.83;107474;1277;112725;-80
2022/08/13 09:40:28;;;;;;;8.10;6.20;;;;;;;28.95;68.68;100209.20;107214;1276;138456;-79
2022/08/13 09:43:22;;;;;;;7.60;6.50;;;;;;;29.00;67.41;100214.07;106271;1277;108750;-80
2022/08/13 09:46:16;;;;;;;7.00;6.30;;;;;;;28.78;67.28;100209.98;105966;1274;138919;-80
2022/08/13 09:48:54;;;;;;;8.00;5.70;;;;;;;28.86;66.96;100214.00;106092;1277;97824;-81
2022/08/13 09:51:31;;;;;;;6.20;5.50;;;;;;;29.12;66.46;100216.44;106052;1277;112620;-80
2022/08/13 09:54:23;;;;;;;8.10;6.00;;;;;;;29.30;65.56;100217.46;107487;1276;109098;-80
2022/08/13 09:57:00;;;;;;;7.50;6.00;;;;;;;29.29;65.17;100215.82;106743;1274;109176;-81
2022/08/13 09:59:33;;;;;;;7.40;5.20;;;;;;;29.31;64.53;100215.77;105965;1277;138749;-80
2022/08/13 10:02:12;;;;;;;5.90;5.20;;;;;;;29.43;64.14;100225.30;106058;1277;97871;-81
2022/08/13 10:04:52;;;;;;;6.20;5.60;;;;;;;29.48;62.98;100232.54;106834;1274;139245;-80
2022/08/13 10:07:27;;;;;;;6.70;5.40;;;;;;;29.45;63.12;100237.44;106078;1276;108958;-80
2022/08/13 10:10:00;;;;;;;7.70;6.30;;;;;;;29.44;63.80;100241.38;105968;1277;139031;-81
2022/08/13 10:12:53;;;;;;;6.20;5.60;;;;;;;29.32;62.09;100247.70;106226;1276;97876;-81
2022/08/13 10:15:26;;;;;;;8.70;5.80;;;;;;;29.04;61.65;100250.96;105982;1277;97861;-81
2022/08/13 10:17:59;;;;;;;7.10;5.80;;;;;;;28.73;61.28;100252.69;106089;1274;138357;-81
2022/08/13 10:20:40;;;;;;;6.50;5.70;;;;;;;28.42;61.71;100255.55;105987;1274;108995;-81
2022/08/13 10:23:15;;;;;;;8.60;6.30;;;;;;;28.22;61.96;100260.03;105882;1274;138552;-80
2022/08/13 10:25:49;;;;;;;6.60;5.50;;;;;;;28.06;61.79;100259.43;105993;1274;97855;-80
2022/08/13 10:28:32;;;;;;;6.60;5.60;;;;;;;27.91;62.32;100255.24;105897;1276;140499;-80
2022/08/13 10:31:07;;;;;;;7.50;6.40;;;;;;;27.78;61.70;100254.80;105987;1275;112420;-80
2022/08/13 10:34:00;;;;;;;7.90;5.40;;;;;;;27.60;61.72;100251.54;106033;1276;138706;-79
2022/08/13 10:36:35;;;;;;;8.50;6.30;;;;;;;27.49;62.27;100251.77;107490;1276;108963;-79
2022/08/13 10:39:08;;;;;;;7.70;6.10;;;;;;;27.41;62.40;100248.87;107469;1276;95991;-78
2022/08/13 10:41:44;;;;;;;7.70;5.80;;;;;;;27.40;63.34;100247.86;106030;1274;138411;-77
2022/08/13 10:44:37;;;;;;;15.00;11.20;;;;;;;27.49;63.56;100242.67;106139;1276;112673;-77
2022/08/13 10:47:12;;;;;;;10.10;7.00;;;;;;;27.54;64.47;100245.17;106003;1274;138992;-77
2022/08/13 10:50:00;;;;;;;6.70;6.00;;;;;;;27.61;64.15;100241.33;106100;1276;108939;-76
2022/08/13 10:52:36;;;;;;;6.80;6.20;;;;;;;27.66;63.18;100234.49;105926;1274;139142;-76
2022/08/13 10:55:16;;;;;;;8.00;6.90;;;;;;;27.73;63.46;100234.59;106138;1274;97757;-77
2022/08/13 10:57:49;;;;;;;6.60;5.40;;;;;;;27.94;63.31;100234.34;106003;1274;139384;-76
2022/08/13 11:00:36;;;;;;;7.50;6.20;;;;;;;28.12;63.03;100233.94;106136;1274;108064;-75
2022/08/13 11:03:09;;;;;;;5.40;4.90;;;;;;;28.29;62.24;100228.86;106537;1275;1292697;-77
2022/08/13 11:05:43;;;;;;;5.50;4.70;;;;;;;28.41;61.35;100226.92;107426;1274;138645;-76
2022/08/13 11:08:19;;;;;;;8.40;6.00;;;;;;;28.42;61.32;100220.15;107542;1274;95974;-76
2022/08/13 11:11:03;;;;;;;5.80;4.70;;;;;;;28.45;60.19;100219.45;106313;1274;138673;-76
2022/08/13 11:13:55;;;;;;;5.50;5.00;;;;;;;28.77;61.61;100211.69;106126;1276;109852;-76
2022/08/13 11:16:56;;;;;;;11.70;5.20;;;;;;;29.21;61.33;100209.77;105993;1276;138567;-75
2022/08/13 11:19:37;;;;;;;6.00;5.10;;;;;;;29.59;60.67;100203.17;106069;1274;98169;-75
2022/08/13 11:22:27;;;;;;;13.00;5.60;;;;;;;29.76;59.36;100201.05;106097;1276;139192;-75
2022/08/13 11:25:01;;;;;;;6.10;5.40;;;;;;;29.79;59.35;100198.52;106317;1277;112485;-76
2022/08/13 11:27:54;;;;;;;8.70;5.70;;;;;;;29.74;58.40;100193.16;106847;1274;140801;-74
2022/08/13 11:30:28;;;;;;;6.50;5.90;;;;;;;29.64;57.72;100189.65;106044;1275;108262;-75
2022/08/13 11:33:08;;;;;;;6.80;6.10;;;;;;;29.53;57.97;100191.87;106100;1274;97903;-74
2022/08/13 11:35:46;;;;;;;5.50;4.90;;;;;;;29.42;58.19;100195.04;106769;1276;139751;-75
2022/08/13 11:38:23;;;;;;;6.70;5.90;;;;;;;29.23;57.15;100198.93;106055;1275;111496;-74
2022/08/13 11:40:57;;;;;;;7.20;6.30;;;;;;;29.06;56.75;100201.61;106174;1274;141490;-75
2022/08/13 11:43:31;;;;;;;6.20;5.40;;;;;;;28.92;56.54;100199.89;106039;1274;108968;-74
2022/08/13 11:46:24;;;;;;;8.10;6.40;;;;;;;29.00;57.60;100204.77;106444;1274;138733;-74
2022/08/13 11:48:56;;;;;;;5.90;5.30;;;;;;;28.95;56.92;100199.58;107552;1274;96269;-75
2022/08/13 11:51:41;;;;;;;6.90;6.00;;;;;;;28.75;56.20;100194.88;107496;1274;138594;-74
2022/08/13 11:54:24;;;;;;;6.70;5.80;;;;;;;28.48;55.30;100198.39;107543;1274;109003;-75
2022/08/13 11:57:06;;;;;;;6.30;5.70;;;;;;;28.16;54.91;100197.23;107532;1276;109059;-75
2022/08/13 11:59:44;;;;;;;6.60;5.20;;;;;;;27.86;55.51;100198.27;107420;1274;138838;-75
2022/08/13 12:02:29;;;;;;;6.60;5.90;;;;;;;27.59;55.54;100201.45;107525;1276;95879;-75
2022/08/13 12:05:11;;;;;;;6.70;5.90;;;;;;;27.39;56.50;100200.48;107413;1276;138363;-75
2022/08/13 12:07:43;;;;;;;6.90;5.40;;;;;;;27.29;56.92;100199.52;107513;1274;108853;-75
2022/08/13 12:10:19;;;;;;;6.30;5.70;;;;;;;27.22;57.29;100202.58;105974;1274;139814;-76
2022/08/13 12:13:11;;;;;;;6.80;6.10;;;;;;;27.16;57.38;100205.00;106112;1274;97842;-75
2022/08/13 12:15:43;;;;;;;7.40;6.20;;;;;;;27.08;57.41;100203.45;106804;1276;138681;-75
2022/08/13 12:18:36;;;;;;;6.70;6.10;;;;;;;27.01;57.52;100204.31;106108;1274;112541;-75
2022/08/13 12:21:09;;;;;;;6.20;5.60;;;;;;;26.96;57.93;100204.52;107553;1274;108903;-76
2022/08/13 12:23:52;;;;;;;6.10;5.60;;;;;;;26.91;58.36;100200.41;107376;1274;138779;-76